sensor_id;sensor_type;location;lat;lon;timestamp;temperature;humidity
418;DHT22;49;48.530;9.200;2023-07-22T00:00:35;21.90;31.30
418;DHT22;49;48.530;9.200;2023-07-22T00:03:01;21.90;28.60
418;DHT22;49;48.530;9.200;2023-07-22T00:05:28;21.70;28.50
418;DHT22;49;48.530;9.200;2023-07-22T00:07:56;21.80;32.40
418;DHT22;49;48.530;9.200;2023-07-22T00:10:23;21.70;28.80
418;DHT22;49;48.530;9.200;2023-07-22T00:12:50;21.40;31.00
418;DHT22;49;48.530;9.200;2023-07-22T00:15:17;21.30;29.60
418;DHT22;49;48.530;9.200;2023-07-22T00:17:46;21.20;30.70
418;DHT22;49;48.530;9.200;2023-07-22T00:20:13;21.40;31.90
418;DHT22;49;48.530;9.200;2023-07-22T00:22:41;21.40;28.70
418;DHT22;49;48.530;9.200;2023-07-22T00:25:10;21.40;29.10
418;DHT22;49;48.530;9.200;2023-07-22T00:27:37;21.30;29.60
418;DHT22;49;48.530;9.200;2023-07-22T00:30:05;21.50;30.20
418;DHT22;49;48.530;9.200;2023-07-22T00:32:33;21.50;30.20
418;DHT22;49;48.530;9.200;2023-07-22T00:35:00;21.60;31.20
418;DHT22;49;48.530;9.200;2023-07-22T00:37:26;21.70;28.50
418;DHT22;49;48.530;9.200;2023-07-22T00:39:53;21.80;30.90
418;DHT22;49;48.530;9.200;2023-07-22T00:42:22;21.90;29.90
418;DHT22;49;48.530;9.200;2023-07-22T00:44:50;22.20;31.30
418;DHT22;49;48.530;9.200;2023-07-22T00:47:17;22.70;30.70
418;DHT22;49;48.530;9.200;2023-07-22T00:49:46;22.80;29.60
418;DHT22;49;48.530;9.200;2023-07-22T00:52:13;22.80;27.10
418;DHT22;49;48.530;9.200;2023-07-22T00:54:42;22.80;28.20
418;DHT22;49;48.530;9.200;2023-07-22T00:57:09;22.90;28.90
418;DHT22;49;48.530;9.200;2023-07-22T00:59:39;23.10;28.80
418;DHT22;49;48.530;9.200;2023-07-22T01:02:06;23.00;26.10
418;DHT22;49;48.530;9.200;2023-07-22T01:04:33;22.80;26.00
418;DHT22;49;48.530;9.200;2023-07-22T01:07:01;22.60;26.90
418;DHT22;49;48.530;9.200;2023-07-22T01:09:34;22.40;28.00
418;DHT22;49;48.530;9.200;2023-07-22T01:12:02;22.60;29.70
418;DHT22;49;48.530;9.200;2023-07-22T01:14:31;22.70;27.90
418;DHT22;49;48.530;9.200;2023-07-22T01:17:01;22.50;25.40
418;DHT22;49;48.530;9.200;2023-07-22T01:19:28;22.20;25.60
418;DHT22;49;48.530;9.200;2023-07-22T01:21:56;22.40;29.70
418;DHT22;49;48.530;9.200;2023-07-22T01:24:25;22.40;25.70
418;DHT22;49;48.530;9.200;2023-07-22T01:26:52;22.30;28.60
418;DHT22;49;48.530;9.200;2023-07-22T01:29:19;22.40;28.10
418;DHT22;49;48.530;9.200;2023-07-22T01:31:47;22.20;26.80
418;DHT22;49;48.530;9.200;2023-07-22T01:34:15;22.10;27.60
418;DHT22;49;48.530;9.200;2023-07-22T01:36:42;22.40;30.60
418;DHT22;49;48.530;9.200;2023-07-22T01:39:09;22.30;27.30
418;DHT22;49;48.530;9.200;2023-07-22T01:41:38;22.20;25.60
418;DHT22;49;48.530;9.200;2023-07-22T01:44:05;21.70;26.60
418;DHT22;49;48.530;9.200;2023-07-22T01:46:33;21.60;27.00
418;DHT22;49;48.530;9.200;2023-07-22T01:49:03;21.40;30.30
418;DHT22;49;48.530;9.200;2023-07-22T01:51:32;21.40;27.40
418;DHT22;49;48.530;9.200;2023-07-22T01:53:59;21.30;27.90
418;DHT22;49;48.530;9.200;2023-07-22T01:56:26;21.20;27.50
418;DHT22;49;48.530;9.200;2023-07-22T01:58:54;21.10;29.90
418;DHT22;49;48.530;9.200;2023-07-22T02:01:21;21.40;31.00
418;DHT22;49;48.530;9.200;2023-07-22T02:03:48;21.50;28.40
418;DHT22;49;48.530;9.200;2023-07-22T02:06:15;21.70;31.30
418;DHT22;49;48.530;9.200;2023-07-22T02:08:42;21.80;30.50
418;DHT22;49;48.530;9.200;2023-07-22T02:11:11;22.10;30.50
418;DHT22;49;48.530;9.200;2023-07-22T02:13:45;22.30;28.00
418;DHT22;49;48.530;9.200;2023-07-22T02:16:13;21.90;28.60
418;DHT22;49;48.530;9.200;2023-07-22T02:18:42;21.50;27.30
418;DHT22;49;48.530;9.200;2023-07-22T02:21:09;21.30;30.30
418;DHT22;49;48.530;9.200;2023-07-22T02:23:36;21.50;30.00
418;DHT22;49;48.530;9.200;2023-07-22T02:26:03;21.40;29.10
418;DHT22;49;48.530;9.200;2023-07-22T02:28:30;21.40;28.40
418;DHT22;49;48.530;9.200;2023-07-22T02:31:01;21.70;31.30
418;DHT22;49;48.530;9.200;2023-07-22T02:33:33;21.90;29.70
418;DHT22;49;48.530;9.200;2023-07-22T02:36:03;21.60;27.00
418;DHT22;49;48.530;9.200;2023-07-22T02:38:30;21.30;27.60
418;DHT22;49;48.530;9.200;2023-07-22T02:41:01;21.00;29.90
418;DHT22;49;48.530;9.200;2023-07-22T02:43:28;21.20;30.90
418;DHT22;49;48.530;9.200;2023-07-22T02:45:55;21.30;29.70
418;DHT22;49;48.530;9.200;2023-07-22T02:48:23;21.40;27.90
418;DHT22;49;48.530;9.200;2023-07-22T02:50:52;21.30;31.00
418;DHT22;49;48.530;9.200;2023-07-22T02:53:20;20.90;29.70
418;DHT22;49;48.530;9.200;2023-07-22T02:55:48;20.60;30.30
418;DHT22;49;48.530;9.200;2023-07-22T02:58:15;20.50;31.70
418;DHT22;49;48.530;9.200;2023-07-22T03:00:42;20.40;32.50
418;DHT22;49;48.530;9.200;2023-07-22T03:03:09;20.30;32.80
418;DHT22;49;48.530;9.200;2023-07-22T03:05:36;20.30;32.10
418;DHT22;49;48.530;9.200;2023-07-22T03:08:05;20.00;32.50
418;DHT22;49;48.530;9.200;2023-07-22T03:10:32;19.80;35.30
418;DHT22;49;48.530;9.200;2023-07-22T03:12:59;19.60;34.20
418;DHT22;49;48.530;9.200;2023-07-22T03:15:29;19.40;36.00
418;DHT22;49;48.530;9.200;2023-07-22T03:17:56;19.30;38.60
418;DHT22;49;48.530;9.200;2023-07-22T03:20:24;19.50;37.60
418;DHT22;49;48.530;9.200;2023-07-22T03:22:51;20.10;38.70
418;DHT22;49;48.530;9.200;2023-07-22T03:25:21;20.50;35.70
418;DHT22;49;48.530;9.200;2023-07-22T03:27:48;20.80;36.20
418;DHT22;49;48.530;9.200;2023-07-22T03:30:17;21.00;30.60
418;DHT22;49;48.530;9.200;2023-07-22T03:32:44;21.20;33.90
418;DHT22;49;48.530;9.200;2023-07-22T03:35:14;21.10;29.60
418;DHT22;49;48.530;9.200;2023-07-22T03:37:44;20.90;32.70
418;DHT22;49;48.530;9.200;2023-07-22T03:40:17;21.10;32.80
418;DHT22;49;48.530;9.200;2023-07-22T03:42:47;21.10;33.20
418;DHT22;49;48.530;9.200;2023-07-22T03:45:14;21.20;31.10
418;DHT22;49;48.530;9.200;2023-07-22T03:47:43;21.10;29.60
418;DHT22;49;48.530;9.200;2023-07-22T03:50:10;21.30;32.10
418;DHT22;49;48.530;9.200;2023-07-22T03:52:37;21.50;30.10
418;DHT22;49;48.530;9.200;2023-07-22T03:55:05;21.80;32.50
418;DHT22;49;48.530;9.200;2023-07-22T03:57:32;21.80;31.00
418;DHT22;49;48.530;9.200;2023-07-22T04:00:01;22.10;28.80
418;DHT22;49;48.530;9.200;2023-07-22T04:02:29;21.70;28.60
418;DHT22;49;48.530;9.200;2023-07-22T04:04:57;21.50;28.50
418;DHT22;49;48.530;9.200;2023-07-22T04:07:24;21.60;31.20
418;DHT22;49;48.530;9.200;2023-07-22T04:09:51;21.80;30.60
418;DHT22;49;48.530;9.200;2023-07-22T04:12:18;21.90;29.20
418;DHT22;49;48.530;9.200;2023-07-22T04:14:45;21.70;28.90
418;DHT22;49;48.530;9.200;2023-07-22T04:17:13;21.10;27.50
418;DHT22;49;48.530;9.200;2023-07-22T04:19:41;20.50;28.70
418;DHT22;49;48.530;9.200;2023-07-22T04:22:08;20.10;30.00
418;DHT22;49;48.530;9.200;2023-07-22T04:24:37;19.70;37.50
418;DHT22;49;48.530;9.200;2023-07-22T04:27:04;19.90;34.80
418;DHT22;49;48.530;9.200;2023-07-22T04:29:31;20.00;32.30
418;DHT22;49;48.530;9.200;2023-07-22T04:31:58;19.90;32.80
418;DHT22;49;48.530;9.200;2023-07-22T04:34:30;19.90;37.10
418;DHT22;49;48.530;9.200;2023-07-22T04:36:57;19.90;36.60
418;DHT22;49;48.530;9.200;2023-07-22T04:39:25;19.90;37.10
418;DHT22;49;48.530;9.200;2023-07-22T04:41:52;19.80;33.80
418;DHT22;49;48.530;9.200;2023-07-22T04:44:19;19.10;36.40
418;DHT22;49;48.530;9.200;2023-07-22T04:46:46;18.70;41.00
418;DHT22;49;48.530;9.200;2023-07-22T04:49:13;18.60;41.70
418;DHT22;49;48.530;9.200;2023-07-22T04:51:44;18.60;43.30
418;DHT22;49;48.530;9.200;2023-07-22T04:54:13;19.10;43.70
418;DHT22;49;48.530;9.200;2023-07-22T04:56:41;19.30;40.50
418;DHT22;49;48.530;9.200;2023-07-22T04:59:08;19.40;40.70
418;DHT22;49;48.530;9.200;2023-07-22T05:01:35;19.50;40.40
418;DHT22;49;48.530;9.200;2023-07-22T05:04:02;19.40;39.30
418;DHT22;49;48.530;9.200;2023-07-22T05:06:30;19.00;41.70
418;DHT22;49;48.530;9.200;2023-07-22T05:08:58;19.10;41.90
418;DHT22;49;48.530;9.200;2023-07-22T05:11:25;19.30;41.50
418;DHT22;49;48.530;9.200;2023-07-22T05:13:52;19.90;39.30
418;DHT22;49;48.530;9.200;2023-07-22T05:16:19;20.30;37.40
418;DHT22;49;48.530;9.200;2023-07-22T05:18:46;20.40;36.90
418;DHT22;49;48.530;9.200;2023-07-22T05:21:13;20.20;35.20
418;DHT22;49;48.530;9.200;2023-07-22T05:23:41;20.40;36.50
418;DHT22;49;48.530;9.200;2023-07-22T05:26:09;20.50;36.60
418;DHT22;49;48.530;9.200;2023-07-22T05:28:38;20.80;35.00
418;DHT22;49;48.530;9.200;2023-07-22T05:31:05;20.40;35.30
418;DHT22;49;48.530;9.200;2023-07-22T05:33:33;20.70;34.30
418;DHT22;49;48.530;9.200;2023-07-22T05:36:00;20.60;34.00
418;DHT22;49;48.530;9.200;2023-07-22T05:38:27;20.90;35.10
418;DHT22;49;48.530;9.200;2023-07-22T05:40:54;21.50;32.00
418;DHT22;49;48.530;9.200;2023-07-22T05:43:23;21.90;30.90
418;DHT22;49;48.530;9.200;2023-07-22T05:45:50;22.70;31.20
418;DHT22;49;48.530;9.200;2023-07-22T05:48:17;24.30;29.50
418;DHT22;49;48.530;9.200;2023-07-22T05:50:44;26.20;23.60
418;DHT22;49;48.530;9.200;2023-07-22T05:53:12;27.40;22.00
418;DHT22;49;48.530;9.200;2023-07-22T05:55:39;28.30;17.50
418;DHT22;49;48.530;9.200;2023-07-22T05:58:06;29.00;17.00
418;DHT22;49;48.530;9.200;2023-07-22T06:00:35;29.90;13.80
418;DHT22;49;48.530;9.200;2023-07-22T06:03:03;30.00;13.20
418;DHT22;49;48.530;9.200;2023-07-22T06:05:30;30.70;13.40
418;DHT22;49;48.530;9.200;2023-07-22T06:07:57;31.60;12.10
418;DHT22;49;48.530;9.200;2023-07-22T06:10:24;32.30;10.40
418;DHT22;49;48.530;9.200;2023-07-22T06:12:54;32.10;10.00
418;DHT22;49;48.530;9.200;2023-07-22T06:15:21;32.40;9.10
418;DHT22;49;48.530;9.200;2023-07-22T06:17:50;32.40;8.90
418;DHT22;49;48.530;9.200;2023-07-22T06:20:17;32.90;8.70
418;DHT22;49;48.530;9.200;2023-07-22T06:22:44;33.00;8.10
418;DHT22;49;48.530;9.200;2023-07-22T06:25:11;33.10;7.50
418;DHT22;49;48.530;9.200;2023-07-22T06:27:38;33.30;7.00
418;DHT22;49;48.530;9.200;2023-07-22T06:30:07;33.60;7.20
418;DHT22;49;48.530;9.200;2023-07-22T06:32:40;33.40;7.10
418;DHT22;49;48.530;9.200;2023-07-22T06:35:10;33.20;7.00
418;DHT22;49;48.530;9.200;2023-07-22T06:37:41;32.80;6.80
418;DHT22;49;48.530;9.200;2023-07-22T06:40:09;32.50;7.90
418;DHT22;49;48.530;9.200;2023-07-22T06:42:40;32.60;8.10
418;DHT22;49;48.530;9.200;2023-07-22T06:45:07;32.30;8.80
418;DHT22;49;48.530;9.200;2023-07-22T06:47:35;32.90;7.50
418;DHT22;49;48.530;9.200;2023-07-22T06:50:05;32.70;7.80
418;DHT22;49;48.530;9.200;2023-07-22T06:52:37;32.10;8.40
418;DHT22;49;48.530;9.200;2023-07-22T06:55:04;32.20;8.70
418;DHT22;49;48.530;9.200;2023-07-22T06:57:33;32.60;7.80
418;DHT22;49;48.530;9.200;2023-07-22T07:00:00;33.00;6.90
418;DHT22;49;48.530;9.200;2023-07-22T07:02:27;32.90;7.20
418;DHT22;49;48.530;9.200;2023-07-22T07:04:57;32.90;7.10
418;DHT22;49;48.530;9.200;2023-07-22T07:07:29;33.20;7.00
418;DHT22;49;48.530;9.200;2023-07-22T07:09:58;32.90;6.80
418;DHT22;49;48.530;9.200;2023-07-22T07:12:28;32.60;6.70
418;DHT22;49;48.530;9.200;2023-07-22T07:14:57;32.20;7.30
418;DHT22;49;48.530;9.200;2023-07-22T07:17:26;33.20;7.60
418;DHT22;49;48.530;9.200;2023-07-22T07:19:53;34.00;5.70
418;DHT22;49;48.530;9.200;2023-07-22T07:22:22;34.90;4.90
418;DHT22;49;48.530;9.200;2023-07-22T07:24:49;35.30;3.90
418;DHT22;49;48.530;9.200;2023-07-22T07:27:20;35.30;3.80
418;DHT22;49;48.530;9.200;2023-07-22T07:29:49;34.70;4.90
418;DHT22;49;48.530;9.200;2023-07-22T07:32:16;34.90;4.30
418;DHT22;49;48.530;9.200;2023-07-22T07:34:49;36.10;3.50
418;DHT22;49;48.530;9.200;2023-07-22T07:37:17;36.10;2.50
418;DHT22;49;48.530;9.200;2023-07-22T07:39:56;36.10;1.90
418;DHT22;49;48.530;9.200;2023-07-22T07:42:29;35.50;2.70
418;DHT22;49;48.530;9.200;2023-07-22T07:44:56;35.00;2.90
418;DHT22;49;48.530;9.200;2023-07-22T07:47:30;35.90;2.70
418;DHT22;49;48.530;9.200;2023-07-22T07:49:57;35.20;2.90
418;DHT22;49;48.530;9.200;2023-07-22T07:52:28;34.30;4.00
418;DHT22;49;48.530;9.200;2023-07-22T07:55:08;34.10;4.40
418;DHT22;49;48.530;9.200;2023-07-22T07:57:40;34.50;3.60
418;DHT22;49;48.530;9.200;2023-07-22T08:00:12;35.30;2.40
418;DHT22;49;48.530;9.200;2023-07-22T08:02:42;35.30;2.20
418;DHT22;49;48.530;9.200;2023-07-22T08:05:09;34.90;2.40
418;DHT22;49;48.530;9.200;2023-07-22T08:07:37;34.60;2.30
418;DHT22;49;48.530;9.200;2023-07-22T08:10:08;34.50;2.70
418;DHT22;49;48.530;9.200;2023-07-22T08:12:42;34.90;2.80
418;DHT22;49;48.530;9.200;2023-07-22T08:15:14;35.90;2.00
418;DHT22;49;48.530;9.200;2023-07-22T08:17:47;36.50;1.00
418;DHT22;49;48.530;9.200;2023-07-22T08:20:17;36.20;1.80
418;DHT22;49;48.530;9.200;2023-07-22T08:22:44;36.70;1.30
418;DHT22;49;48.530;9.200;2023-07-22T08:25:12;37.30;1.60
418;DHT22;49;48.530;9.200;2023-07-22T08:27:46;36.70;1.00
418;DHT22;49;48.530;9.200;2023-07-22T08:30:15;36.50;1.00
418;DHT22;49;48.530;9.200;2023-07-22T08:32:43;36.50;1.00
418;DHT22;49;48.530;9.200;2023-07-22T08:35:11;36.50;1.00
418;DHT22;49;48.530;9.200;2023-07-22T08:37:50;36.70;1.00
418;DHT22;49;48.530;9.200;2023-07-22T08:40:25;35.90;1.00
418;DHT22;49;48.530;9.200;2023-07-22T08:43:03;36.10;1.00
418;DHT22;49;48.530;9.200;2023-07-22T08:45:48;35.80;1.00
418;DHT22;49;48.530;9.200;2023-07-22T08:48:24;35.20;1.00
418;DHT22;49;48.530;9.200;2023-07-22T08:51:10;35.10;1.00
418;DHT22;49;48.530;9.200;2023-07-22T08:53:49;35.10;1.00
418;DHT22;49;48.530;9.200;2023-07-22T08:56:26;34.60;1.00
418;DHT22;49;48.530;9.200;2023-07-22T08:59:02;34.00;1.00
418;DHT22;49;48.530;9.200;2023-07-22T09:01:48;33.70;1.60
418;DHT22;49;48.530;9.200;2023-07-22T09:04:17;33.30;1.60
418;DHT22;49;48.530;9.200;2023-07-22T09:06:45;33.80;1.30
418;DHT22;49;48.530;9.200;2023-07-22T09:09:14;33.80;1.00
418;DHT22;49;48.530;9.200;2023-07-22T09:11:45;33.50;1.00
418;DHT22;49;48.530;9.200;2023-07-22T09:14:17;33.70;1.10
418;DHT22;49;48.530;9.200;2023-07-22T09:16:45;33.40;1.00
418;DHT22;49;48.530;9.200;2023-07-22T09:19:12;33.40;1.00
418;DHT22;49;48.530;9.200;2023-07-22T09:21:39;32.90;1.00
418;DHT22;49;48.530;9.200;2023-07-22T09:24:20;32.70;1.70
418;DHT22;49;48.530;9.200;2023-07-22T09:26:57;32.70;1.60
418;DHT22;49;48.530;9.200;2023-07-22T09:32:35;31.20;1.70
418;DHT22;49;48.530;9.200;2023-07-22T09:35:31;31.10;1.60
418;DHT22;49;48.530;9.200;2023-07-22T09:38:09;30.70;2.80
418;DHT22;49;48.530;9.200;2023-07-22T09:40:36;29.90;3.40
418;DHT22;49;48.530;9.200;2023-07-22T09:43:18;29.50;4.50
418;DHT22;49;48.530;9.200;2023-07-22T09:45:48;30.50;3.60
418;DHT22;49;48.530;9.200;2023-07-22T09:48:20;30.20;3.80
418;DHT22;49;48.530;9.200;2023-07-22T09:50:56;30.60;3.20
418;DHT22;49;48.530;9.200;2023-07-22T09:53:25;31.40;2.80
418;DHT22;49;48.530;9.200;2023-07-22T09:55:55;31.90;1.90
418;DHT22;49;48.530;9.200;2023-07-22T09:58:26;31.60;2.50
418;DHT22;49;48.530;9.200;2023-07-22T10:01:04;31.80;2.00
418;DHT22;49;48.530;9.200;2023-07-22T10:03:40;32.20;2.40
418;DHT22;49;48.530;9.200;2023-07-22T10:06:16;31.80;3.30
418;DHT22;49;48.530;9.200;2023-07-22T10:08:47;31.50;2.40
418;DHT22;49;48.530;9.200;2023-07-22T10:11:15;31.80;1.70
418;DHT22;49;48.530;9.200;2023-07-22T10:13:48;32.00;1.60
418;DHT22;49;48.530;9.200;2023-07-22T10:16:19;31.60;1.20
418;DHT22;49;48.530;9.200;2023-07-22T10:19:00;30.90;2.30
418;DHT22;49;48.530;9.200;2023-07-22T10:21:28;31.00;2.90
418;DHT22;49;48.530;9.200;2023-07-22T10:23:57;30.50;2.80
418;DHT22;49;48.530;9.200;2023-07-22T10:26:29;30.00;3.30
418;DHT22;49;48.530;9.200;2023-07-22T10:29:07;30.40;4.40
418;DHT22;49;48.530;9.200;2023-07-22T10:31:44;30.40;4.00
418;DHT22;49;48.530;9.200;2023-07-22T10:34:21;31.00;2.90
418;DHT22;49;48.530;9.200;2023-07-22T10:36:50;31.10;2.50
418;DHT22;49;48.530;9.200;2023-07-22T10:39:25;30.80;3.30
418;DHT22;49;48.530;9.200;2023-07-22T10:42:01;30.40;4.20
418;DHT22;49;48.530;9.200;2023-07-22T10:44:31;30.30;5.40
418;DHT22;49;48.530;9.200;2023-07-22T10:47:00;30.20;4.60
418;DHT22;49;48.530;9.200;2023-07-22T10:49:44;31.10;3.50
418;DHT22;49;48.530;9.200;2023-07-22T10:52:11;31.70;4.10
418;DHT22;49;48.530;9.200;2023-07-22T10:54:48;31.90;3.20
418;DHT22;49;48.530;9.200;2023-07-22T10:57:23;31.10;3.60
418;DHT22;49;48.530;9.200;2023-07-22T10:59:55;31.40;3.80
418;DHT22;49;48.530;9.200;2023-07-22T11:02:30;31.10;5.90
418;DHT22;49;48.530;9.200;2023-07-22T11:05:05;30.50;3.60
418;DHT22;49;48.530;9.200;2023-07-22T11:07:34;30.60;5.60
418;DHT22;49;48.530;9.200;2023-07-22T11:10:15;30.00;4.80
418;DHT22;49;48.530;9.200;2023-07-22T11:12:52;30.50;3.90
418;DHT22;49;48.530;9.200;2023-07-22T11:15:20;30.80;3.90
418;DHT22;49;48.530;9.200;2023-07-22T11:18:00;30.30;4.40
418;DHT22;49;48.530;9.200;2023-07-22T11:20:33;30.30;5.40
418;DHT22;49;48.530;9.200;2023-07-22T11:23:08;30.80;5.50
418;DHT22;49;48.530;9.200;2023-07-22T11:25:42;30.60;5.60
418;DHT22;49;48.530;9.200;2023-07-22T11:28:21;31.00;3.70
418;DHT22;49;48.530;9.200;2023-07-22T11:30:53;30.90;3.30
418;DHT22;49;48.530;9.200;2023-07-22T11:34:01;30.70;6.50
418;DHT22;49;48.530;9.200;2023-07-22T11:36:40;31.00;2.40
418;DHT22;49;48.530;9.200;2023-07-22T11:39:20;31.60;3.40
418;DHT22;49;48.530;9.200;2023-07-22T11:42:05;31.70;2.50
418;DHT22;49;48.530;9.200;2023-07-22T11:44:44;32.10;1.00
418;DHT22;49;48.530;9.200;2023-07-22T11:47:11;31.70;2.20
418;DHT22;49;48.530;9.200;2023-07-22T11:49:49;31.80;1.10
418;DHT22;49;48.530;9.200;2023-07-22T11:52:19;32.10;2.30
418;DHT22;49;48.530;9.200;2023-07-22T11:54:50;32.10;1.40
418;DHT22;49;48.530;9.200;2023-07-22T11:57:20;31.30;2.20
418;DHT22;49;48.530;9.200;2023-07-22T11:59:55;30.80;2.70
418;DHT22;49;48.530;9.200;2023-07-22T12:02:23;30.80;5.60
418;DHT22;49;48.530;9.200;2023-07-22T12:04:57;30.30;4.10
418;DHT22;49;48.530;9.200;2023-07-22T12:07:30;29.40;5.00
418;DHT22;49;48.530;9.200;2023-07-22T12:10:01;30.10;5.60
418;DHT22;49;48.530;9.200;2023-07-22T12:12:33;30.20;4.70
418;DHT22;49;48.530;9.200;2023-07-22T12:15:02;30.20;4.70
418;DHT22;49;48.530;9.200;2023-07-22T12:17:43;30.80;5.40
418;DHT22;49;48.530;9.200;2023-07-22T12:20:13;31.50;2.80
418;DHT22;49;48.530;9.200;2023-07-22T12:22:41;31.40;3.10
418;DHT22;49;48.530;9.200;2023-07-22T12:25:10;30.30;3.70
418;DHT22;49;48.530;9.200;2023-07-22T12:27:37;29.90;4.50
418;DHT22;49;48.530;9.200;2023-07-22T12:30:12;29.70;5.10
418;DHT22;49;48.530;9.200;2023-07-22T12:32:41;30.00;5.10
418;DHT22;49;48.530;9.200;2023-07-22T12:35:11;30.30;5.40
418;DHT22;49;48.530;9.200;2023-07-22T12:37:42;30.40;3.30
418;DHT22;49;48.530;9.200;2023-07-22T12:40:10;30.40;3.50
418;DHT22;49;48.530;9.200;2023-07-22T12:42:53;30.70;4.20
418;DHT22;49;48.530;9.200;2023-07-22T12:45:20;31.00;4.10
418;DHT22;49;48.530;9.200;2023-07-22T12:47:47;31.10;5.00
418;DHT22;49;48.530;9.200;2023-07-22T12:50:25;31.00;3.20
418;DHT22;49;48.530;9.200;2023-07-22T12:52:52;30.50;3.80
418;DHT22;49;48.530;9.200;2023-07-22T12:55:24;30.60;4.40
418;DHT22;49;48.530;9.200;2023-07-22T12:57:54;30.50;4.30
418;DHT22;49;48.530;9.200;2023-07-22T13:00:24;30.70;4.80
418;DHT22;49;48.530;9.200;2023-07-22T13:02:51;31.10;3.40
418;DHT22;49;48.530;9.200;2023-07-22T13:05:31;30.70;4.20
418;DHT22;49;48.530;9.200;2023-07-22T13:08:01;29.80;5.10
418;DHT22;49;48.530;9.200;2023-07-22T13:10:39;30.00;6.30
418;DHT22;49;48.530;9.200;2023-07-22T13:13:12;30.20;5.00
418;DHT22;49;48.530;9.200;2023-07-22T13:15:43;30.00;4.90
418;DHT22;49;48.530;9.200;2023-07-22T13:18:16;29.70;5.10
418;DHT22;49;48.530;9.200;2023-07-22T13:20:44;29.90;6.50
418;DHT22;49;48.530;9.200;2023-07-22T13:23:12;30.20;4.70
418;DHT22;49;48.530;9.200;2023-07-22T13:25:39;30.20;4.10
418;DHT22;49;48.530;9.200;2023-07-22T13:28:11;30.10;5.30
418;DHT22;49;48.530;9.200;2023-07-22T13:30:40;30.30;4.50
418;DHT22;49;48.530;9.200;2023-07-22T13:33:15;30.40;5.50
418;DHT22;49;48.530;9.200;2023-07-22T13:35:47;30.00;3.80
418;DHT22;49;48.530;9.200;2023-07-22T13:38:16;30.10;3.90
418;DHT22;49;48.530;9.200;2023-07-22T13:40:43;30.70;4.00
418;DHT22;49;48.530;9.200;2023-07-22T13:43:10;30.70;3.40
418;DHT22;49;48.530;9.200;2023-07-22T13:45:51;30.90;2.90
418;DHT22;49;48.530;9.200;2023-07-22T13:48:34;31.10;3.30
418;DHT22;49;48.530;9.200;2023-07-22T13:51:05;31.10;2.80
418;DHT22;49;48.530;9.200;2023-07-22T13:53:36;31.00;3.40
418;DHT22;49;48.530;9.200;2023-07-22T13:56:03;31.10;3.10
418;DHT22;49;48.530;9.200;2023-07-22T13:58:30;31.40;2.90
418;DHT22;49;48.530;9.200;2023-07-22T14:00:57;31.30;3.10
418;DHT22;49;48.530;9.200;2023-07-22T14:03:34;31.00;3.20
418;DHT22;49;48.530;9.200;2023-07-22T14:06:01;31.10;3.10
418;DHT22;49;48.530;9.200;2023-07-22T14:08:48;30.90;4.20
418;DHT22;49;48.530;9.200;2023-07-22T14:11:19;30.20;4.60
418;DHT22;49;48.530;9.200;2023-07-22T14:13:46;29.30;4.90
418;DHT22;49;48.530;9.200;2023-07-22T14:16:18;29.10;4.80
418;DHT22;49;48.530;9.200;2023-07-22T14:18:48;30.00;5.70
418;DHT22;49;48.530;9.200;2023-07-22T14:21:17;30.40;3.90
418;DHT22;49;48.530;9.200;2023-07-22T14:23:48;30.30;4.50
418;DHT22;49;48.530;9.200;2023-07-22T14:26:22;30.70;5.60
418;DHT22;49;48.530;9.200;2023-07-22T14:28:49;30.00;3.50
418;DHT22;49;48.530;9.200;2023-07-22T14:31:21;30.00;3.60
418;DHT22;49;48.530;9.200;2023-07-22T14:33:48;30.30;4.20
418;DHT22;49;48.530;9.200;2023-07-22T14:36:15;30.70;3.50
418;DHT22;49;48.530;9.200;2023-07-22T14:38:43;30.90;2.70
418;DHT22;49;48.530;9.200;2023-07-22T14:41:13;30.30;3.10
418;DHT22;49;48.530;9.200;2023-07-22T14:43:41;30.30;3.00
418;DHT22;49;48.530;9.200;2023-07-22T14:46:09;30.50;3.10
418;DHT22;49;48.530;9.200;2023-07-22T14:48:42;30.70;3.00
418;DHT22;49;48.530;9.200;2023-07-22T14:51:13;30.60;2.40
418;DHT22;49;48.530;9.200;2023-07-22T14:53:42;31.10;2.40
418;DHT22;49;48.530;9.200;2023-07-22T14:56:08;31.00;2.50
418;DHT22;49;48.530;9.200;2023-07-22T14:58:36;30.90;2.20
418;DHT22;49;48.530;9.200;2023-07-22T15:01:04;31.20;2.20
418;DHT22;49;48.530;9.200;2023-07-22T15:03:41;31.30;1.70
418;DHT22;49;48.530;9.200;2023-07-22T15:06:08;31.20;2.20
418;DHT22;49;48.530;9.200;2023-07-22T15:08:35;31.00;1.50
418;DHT22;49;48.530;9.200;2023-07-22T15:11:05;31.20;1.20
418;DHT22;49;48.530;9.200;2023-07-22T15:13:33;31.30;2.00
418;DHT22;49;48.530;9.200;2023-07-22T15:16:07;30.80;2.60
418;DHT22;49;48.530;9.200;2023-07-22T15:18:34;29.70;2.70
418;DHT22;49;48.530;9.200;2023-07-22T15:21:03;29.30;3.30
418;DHT22;49;48.530;9.200;2023-07-22T15:23:30;29.50;2.90
418;DHT22;49;48.530;9.200;2023-07-22T15:26:01;29.40;3.10
418;DHT22;49;48.530;9.200;2023-07-22T15:28:38;29.90;2.70
418;DHT22;49;48.530;9.200;2023-07-22T15:31:14;30.60;2.20
418;DHT22;49;48.530;9.200;2023-07-22T15:33:44;30.40;2.50
418;DHT22;49;48.530;9.200;2023-07-22T15:36:11;30.10;2.00
418;DHT22;49;48.530;9.200;2023-07-22T15:38:38;29.60;2.80
418;DHT22;49;48.530;9.200;2023-07-22T15:41:08;30.00;2.90
418;DHT22;49;48.530;9.200;2023-07-22T15:43:43;30.20;2.70
418;DHT22;49;48.530;9.200;2023-07-22T15:46:19;29.50;3.00
418;DHT22;49;48.530;9.200;2023-07-22T15:48:48;29.50;3.50
418;DHT22;49;48.530;9.200;2023-07-22T15:51:15;29.90;2.80
418;DHT22;49;48.530;9.200;2023-07-22T15:53:44;30.10;2.80
418;DHT22;49;48.530;9.200;2023-07-22T15:56:14;30.50;3.20
418;DHT22;49;48.530;9.200;2023-07-22T15:58:44;30.70;2.30
418;DHT22;49;48.530;9.200;2023-07-22T16:01:15;30.90;2.40
418;DHT22;49;48.530;9.200;2023-07-22T16:03:48;30.60;2.50
418;DHT22;49;48.530;9.200;2023-07-22T16:06:15;30.60;1.60
418;DHT22;49;48.530;9.200;2023-07-22T16:08:42;30.30;2.50
418;DHT22;49;48.530;9.200;2023-07-22T16:11:09;29.80;2.10
418;DHT22;49;48.530;9.200;2023-07-22T16:13:39;29.30;3.50
418;DHT22;49;48.530;9.200;2023-07-22T16:16:06;29.40;3.50
418;DHT22;49;48.530;9.200;2023-07-22T16:18:37;30.10;2.20
418;DHT22;49;48.530;9.200;2023-07-22T16:21:12;30.50;2.20
418;DHT22;49;48.530;9.200;2023-07-22T16:23:39;30.70;1.90
418;DHT22;49;48.530;9.200;2023-07-22T16:26:06;30.70;3.20
418;DHT22;49;48.530;9.200;2023-07-22T16:28:36;31.00;2.00
418;DHT22;49;48.530;9.200;2023-07-22T16:31:06;31.10;3.00
418;DHT22;49;48.530;9.200;2023-07-22T16:33:34;30.80;2.00
418;DHT22;49;48.530;9.200;2023-07-22T16:36:03;30.70;2.40
418;DHT22;49;48.530;9.200;2023-07-22T16:38:33;30.40;2.40
418;DHT22;49;48.530;9.200;2023-07-22T16:41:00;30.30;3.00
418;DHT22;49;48.530;9.200;2023-07-22T16:43:27;30.40;2.90
418;DHT22;49;48.530;9.200;2023-07-22T16:45:54;30.40;2.50
418;DHT22;49;48.530;9.200;2023-07-22T16:48:21;30.40;3.30
418;DHT22;49;48.530;9.200;2023-07-22T16:50:48;30.50;2.70
418;DHT22;49;48.530;9.200;2023-07-22T16:53:16;30.70;2.40
418;DHT22;49;48.530;9.200;2023-07-22T16:55:44;30.40;2.70
418;DHT22;49;48.530;9.200;2023-07-22T16:58:11;30.50;2.90
418;DHT22;49;48.530;9.200;2023-07-22T17:00:41;30.70;3.00
418;DHT22;49;48.530;9.200;2023-07-22T17:03:08;31.00;3.10
418;DHT22;49;48.530;9.200;2023-07-22T17:05:36;31.00;2.30
418;DHT22;49;48.530;9.200;2023-07-22T17:08:04;30.90;2.10
418;DHT22;49;48.530;9.200;2023-07-22T17:10:33;30.70;2.50
418;DHT22;49;48.530;9.200;2023-07-22T17:13:00;30.80;2.50
418;DHT22;49;48.530;9.200;2023-07-22T17:15:27;30.50;3.80
418;DHT22;49;48.530;9.200;2023-07-22T17:17:55;30.40;2.90
418;DHT22;49;48.530;9.200;2023-07-22T17:20:22;30.40;3.40
418;DHT22;49;48.530;9.200;2023-07-22T17:22:50;30.50;2.80
418;DHT22;49;48.530;9.200;2023-07-22T17:25:18;30.10;3.60